PWSweather.com
Personal Weather Stations
Station Observations
LEONMETEO
LeonES 24008

LeonES 24008

Lat: 42.6055559, Lon: -5.5752249

Elevation: 2690

Station Type: La Crosse WS3600

Latest ConditionsUpdated 12:33:47 PM GMT+01:01 Sunday, May 29, 2016
Currently Today's Max Today's Min Today's Average
Temperature 56.8°F13.8°C 58.1°F14.5°C 48.2°F9.0°C 51.7°F10.9°C
Dew Point 48.9°F9.4°C 49.4°F9.7°C 42.9°F6.1°C 45.5°F7.5°C
Winds - N16091.8 kmh N Calm Calm - Calm Calm
Wind Gusts -- -- - -
Humidity 75% 83% 72% 80%
Pressure 29.77 in1008.1 mb 29.78 in1008.5 mb 29.73 in1006.8 mb -
Hour Temp Dew Point Humidity Winds Wind Gusts Pressure Precip Precip Rate Daily Precip Total
12:33 PM 56.8°F13.8°C 48.9°F9.4°C 75% - N16091.8 kmh N -- 29.77 in1008.1 mb 0.00 in0.0 mm 0.00 in0.0 mm 0.00 in0.0 mm
12:28 PM 56.8°F13.8°C 48.9°F9.4°C 75% - N16091.8 kmh N -- 29.78 in1008.5 mb 0.00 in0.0 mm 0.00 in0.0 mm 0.00 in0.0 mm
12:23 PM 56.1°F13.4°C 48.2°F9.0°C 75% - N16091.8 kmh N -- 29.77 in1008.1 mb 0.00 in0.0 mm 0.00 in0.0 mm 0.00 in0.0 mm
12:18 PM 55.7°F13.2°C 48.2°F9.0°C 76% - N16091.8 kmh N -- 29.77 in1008.1 mb 0.00 in0.0 mm 0.00 in0.0 mm 0.00 in0.0 mm
12:13 PM 55.5°F13.1°C 48.0°F8.9°C 76% - N16091.8 kmh N -- 29.77 in1008.1 mb 0.00 in0.0 mm 0.00 in0.0 mm 0.00 in0.0 mm
12:08 PM 55.5°F13.1°C 47.7°F8.7°C 75% - N16091.8 kmh N -- 29.78 in1008.5 mb 0.00 in0.0 mm 0.00 in0.0 mm 0.00 in0.0 mm
12:03 PM 55.9°F13.3°C 48.0°F8.9°C 75% - N16091.8 kmh N -- 29.78 in1008.5 mb 0.00 in0.0 mm 0.00 in0.0 mm 0.00 in0.0 mm
11:58 AM 56.1°F13.4°C 47.9°F8.8°C 74% - N16091.8 kmh N -- 29.78 in1008.5 mb 0.00 in0.0 mm 0.00 in0.0 mm 0.00 in0.0 mm
11:53 AM 56.4°F13.6°C 47.8°F8.8°C 73% - N16091.8 kmh N -- 29.77 in1008.1 mb 0.00 in0.0 mm 0.00 in0.0 mm 0.00 in0.0 mm
11:48 AM 56.6°F13.7°C 48.0°F8.9°C 73% - N16091.8 kmh N -- 29.78 in1008.5 mb 0.00 in0.0 mm 0.00 in0.0 mm 0.00 in0.0 mm
11:43 AM 57.0°F13.9°C 48.0°F8.9°C 72% - N16091.8 kmh N -- 29.77 in1008.1 mb 0.00 in0.0 mm 0.00 in0.0 mm 0.00 in0.0 mm
11:38 AM 57.2°F14.0°C 48.2°F9.0°C 72% - N16091.8 kmh N -- 29.77 in1008.1 mb 0.00 in0.0 mm 0.00 in0.0 mm 0.00 in0.0 mm
11:33 AM 57.5°F14.2°C 48.5°F9.2°C 72% - N16091.8 kmh N -- 29.77 in1008.1 mb 0.00 in0.0 mm 0.00 in0.0 mm 0.00 in0.0 mm
11:28 AM 57.9°F14.4°C 48.9°F9.4°C 72% - N16091.8 kmh N -- 29.77 in1008.1 mb 0.00 in0.0 mm 0.00 in0.0 mm 0.00 in0.0 mm
11:23 AM 58.1°F14.5°C 49.4°F9.7°C 73% - N16091.8 kmh N -- 29.77 in1008.1 mb 0.00 in0.0 mm 0.00 in0.0 mm 0.00 in0.0 mm
11:18 AM 57.7°F14.3°C 49.4°F9.7°C 74% - N16091.8 kmh N -- 29.77 in1008.1 mb 0.00 in0.0 mm 0.00 in0.0 mm 0.00 in0.0 mm
11:13 AM 57.7°F14.3°C 49.4°F9.7°C 74% - N16091.8 kmh N -- 29.78 in1008.5 mb 0.00 in0.0 mm 0.00 in0.0 mm 0.00 in0.0 mm
11:08 AM 57.0°F13.9°C 49.1°F9.5°C 75% - N16091.8 kmh N -- 29.78 in1008.5 mb 0.00 in0.0 mm 0.00 in0.0 mm 0.00 in0.0 mm
11:03 AM 56.8°F13.8°C 48.9°F9.4°C 75% - N16091.8 kmh N -- 29.78 in1008.5 mb 0.00 in0.0 mm 0.00 in0.0 mm 0.00 in0.0 mm
10:58 AM 56.8°F13.8°C 48.9°F9.4°C 75% - N16091.8 kmh N -- 29.78 in1008.5 mb 0.00 in0.0 mm 0.00 in0.0 mm 0.00 in0.0 mm
10:53 AM 56.6°F13.7°C 48.7°F9.3°C 75% - N16091.8 kmh N -- 29.78 in1008.5 mb 0.00 in0.0 mm 0.00 in0.0 mm 0.00 in0.0 mm
10:48 AM 56.6°F13.7°C 48.7°F9.3°C 75% - N16091.8 kmh N -- 29.78 in1008.5 mb 0.00 in0.0 mm 0.00 in0.0 mm 0.00 in0.0 mm
10:43 AM 56.3°F13.5°C 48.7°F9.3°C 76% - N16091.8 kmh N -- 29.78 in1008.5 mb 0.00 in0.0 mm 0.00 in0.0 mm 0.00 in0.0 mm
10:38 AM 55.9°F13.3°C 48.0°F8.9°C 75% - N16091.8 kmh N -- 29.78 in1008.5 mb 0.00 in0.0 mm 0.00 in0.0 mm 0.00 in0.0 mm
10:33 AM 55.5°F13.1°C 47.7°F8.7°C 75% - N16091.8 kmh N -- 29.78 in1008.5 mb 0.00 in0.0 mm 0.00 in0.0 mm 0.00 in0.0 mm
10:28 AM 55.2°F12.9°C 47.4°F8.6°C 75% - N16091.8 kmh N -- 29.78 in1008.5 mb 0.00 in0.0 mm 0.00 in0.0 mm 0.00 in0.0 mm
10:22 AM 55.0°F12.8°C 47.2°F8.4°C 75% - N16091.8 kmh N -- 29.78 in1008.5 mb 0.00 in0.0 mm 0.00 in0.0 mm 0.00 in0.0 mm
10:17 AM 55.0°F12.8°C 47.2°F8.4°C 75% - N16091.8 kmh N -- 29.78 in1008.5 mb 0.00 in0.0 mm 0.00 in0.0 mm 0.00 in0.0 mm
10:12 AM 55.0°F12.8°C 47.2°F8.4°C 75% - N16091.8 kmh N -- 29.78 in1008.5 mb 0.00 in0.0 mm 0.00 in0.0 mm 0.00 in0.0 mm
10:07 AM 55.0°F12.8°C 47.2°F8.4°C 75% - N16091.8 kmh N -- 29.78 in1008.5 mb 0.00 in0.0 mm 0.00 in0.0 mm 0.00 in0.0 mm
10:02 AM 55.2°F12.9°C 47.4°F8.6°C 75% - N16091.8 kmh N -- 29.78 in1008.5 mb 0.00 in0.0 mm 0.00 in0.0 mm 0.00 in0.0 mm
09:57 AM 55.2°F12.9°C 47.4°F8.6°C 75% - N16091.8 kmh N -- 29.78 in1008.5 mb 0.00 in0.0 mm 0.00 in0.0 mm 0.00 in0.0 mm
09:52 AM 55.0°F12.8°C 47.5°F8.6°C 76% - N16091.8 kmh N -- 29.78 in1008.5 mb 0.00 in0.0 mm 0.00 in0.0 mm 0.00 in0.0 mm
09:47 AM 55.0°F12.8°C 47.5°F8.6°C 76% - N16091.8 kmh N -- 29.78 in1008.5 mb 0.00 in0.0 mm 0.00 in0.0 mm 0.00 in0.0 mm
09:42 AM 55.0°F12.8°C 47.5°F8.6°C 76% - N16091.8 kmh N -- 29.78 in1008.5 mb 0.00 in0.0 mm 0.00 in0.0 mm 0.00 in0.0 mm
09:37 AM 54.6°F12.6°C 47.5°F8.6°C 77% - N16091.8 kmh N -- 29.78 in1008.5 mb 0.00 in0.0 mm 0.00 in0.0 mm 0.00 in0.0 mm
09:32 AM 54.3°F12.4°C 47.2°F8.4°C 77% - N16091.8 kmh N -- 29.78 in1008.5 mb 0.00 in0.0 mm 0.00 in0.0 mm 0.00 in0.0 mm
09:27 AM 53.7°F12.1°C 47.1°F8.4°C 77% - N16091.8 kmh N -- 29.78 in1008.5 mb 0.00 in0.0 mm 0.00 in0.0 mm 0.00 in0.0 mm
09:22 AM 53.7°F12.1°C 47.1°F8.4°C 78% - N16091.8 kmh N -- 29.78 in1008.5 mb 0.00 in0.0 mm 0.00 in0.0 mm 0.00 in0.0 mm
09:17 AM 53.4°F11.9°C 46.7°F8.2°C 78% - N16091.8 kmh N -- 29.78 in1008.5 mb 0.00 in0.0 mm 0.00 in0.0 mm 0.00 in0.0 mm
09:12 AM 53.2°F11.8°C 46.9°F8.3°C 78% - N16091.8 kmh N -- 29.78 in1008.5 mb 0.00 in0.0 mm 0.00 in0.0 mm 0.00 in0.0 mm
09:07 AM 52.8°F11.6°C 46.5°F8.1°C 79% - N16091.8 kmh N -- 29.78 in1008.5 mb 0.00 in0.0 mm 0.00 in0.0 mm 0.00 in0.0 mm
09:02 AM 52.7°F11.5°C 46.7°F8.2°C 79% - N16091.8 kmh N -- 29.77 in1008.1 mb 0.00 in0.0 mm 0.00 in0.0 mm 0.00 in0.0 mm
08:57 AM 52.5°F11.4°C 46.5°F8.1°C 80% - N16091.8 kmh N -- 29.78 in1008.5 mb 0.00 in0.0 mm 0.00 in0.0 mm 0.00 in0.0 mm
08:52 AM 52.3°F11.3°C 46.4°F8.0°C 80% - N16091.8 kmh N -- 29.77 in1008.1 mb 0.00 in0.0 mm 0.00 in0.0 mm 0.00 in0.0 mm
08:47 AM 52.1°F11.2°C 46.2°F7.9°C 80% - N16091.8 kmh N -- 29.77 in1008.1 mb 0.00 in0.0 mm 0.00 in0.0 mm 0.00 in0.0 mm
08:42 AM 51.9°F11.1°C 46.3°F7.9°C 81% - N16091.8 kmh N -- 29.77 in1008.1 mb 0.00 in0.0 mm 0.00 in0.0 mm 0.00 in0.0 mm
08:37 AM 51.6°F10.9°C 45.9°F7.7°C 81% - N16091.8 kmh N -- 29.77 in1008.1 mb 0.00 in0.0 mm 0.00 in0.0 mm 0.00 in0.0 mm
08:32 AM 51.6°F10.9°C 45.9°F7.7°C 81% - N16091.8 kmh N -- 29.77 in1008.1 mb 0.00 in0.0 mm 0.00 in0.0 mm 0.00 in0.0 mm
08:27 AM 51.4°F10.8°C 45.8°F7.7°C 81% - N16091.8 kmh N -- 29.77 in1008.1 mb 0.00 in0.0 mm 0.00 in0.0 mm 0.00 in0.0 mm
08:22 AM 50.9°F10.5°C 45.2°F7.3°C 81% - N16091.8 kmh N -- 29.77 in1008.1 mb 0.00 in0.0 mm 0.00 in0.0 mm 0.00 in0.0 mm
08:17 AM 50.7°F10.4°C 45.0°F7.2°C 81% - N16091.8 kmh N -- 29.76 in1007.8 mb 0.00 in0.0 mm 0.00 in0.0 mm 0.00 in0.0 mm
08:12 AM 50.5°F10.3°C 44.9°F7.2°C 81% - N16091.8 kmh N -- 29.77 in1008.1 mb 0.00 in0.0 mm 0.00 in0.0 mm 0.00 in0.0 mm
08:07 AM 50.5°F10.3°C 44.9°F7.2°C 81% - N16091.8 kmh N -- 29.76 in1007.8 mb 0.00 in0.0 mm 0.00 in0.0 mm 0.00 in0.0 mm
08:02 AM 50.5°F10.3°C 44.9°F7.2°C 81% - N16091.8 kmh N -- 29.76 in1007.8 mb 0.00 in0.0 mm 0.00 in0.0 mm 0.00 in0.0 mm
07:57 AM 50.3°F10.2°C 44.7°F7.1°C 81% - N16091.8 kmh N -- 29.76 in1007.8 mb 0.00 in0.0 mm 0.00 in0.0 mm 0.00 in0.0 mm
07:52 AM 50.3°F10.2°C 44.7°F7.1°C 81% - N16091.8 kmh N -- 29.76 in1007.8 mb 0.00 in0.0 mm 0.00 in0.0 mm 0.00 in0.0 mm
07:47 AM 50.0°F10.0°C 44.3°F6.8°C 81% - N16091.8 kmh N -- 29.76 in1007.8 mb 0.00 in0.0 mm 0.00 in0.0 mm 0.00 in0.0 mm
07:42 AM 50.0°F10.0°C 44.3°F6.8°C 81% - N16091.8 kmh N -- 29.76 in1007.8 mb 0.00 in0.0 mm 0.00 in0.0 mm 0.00 in0.0 mm
07:37 AM 49.8°F9.9°C 44.4°F6.9°C 81% - N16091.8 kmh N -- 29.76 in1007.8 mb 0.00 in0.0 mm 0.00 in0.0 mm 0.00 in0.0 mm
07:32 AM 49.8°F9.9°C 44.4°F6.9°C 81% - N16091.8 kmh N -- 29.76 in1007.8 mb 0.00 in0.0 mm 0.00 in0.0 mm 0.00 in0.0 mm
07:27 AM 49.8°F9.9°C 44.4°F6.9°C 82% - N16091.8 kmh N -- 29.76 in1007.8 mb 0.00 in0.0 mm 0.00 in0.0 mm 0.00 in0.0 mm
07:22 AM 49.6°F9.8°C 44.3°F6.8°C 82% - N16091.8 kmh N -- 29.76 in1007.8 mb 0.00 in0.0 mm 0.00 in0.0 mm 0.00 in0.0 mm
07:17 AM 49.4°F9.7°C 44.1°F6.7°C 82% - N16091.8 kmh N -- 29.76 in1007.8 mb 0.00 in0.0 mm 0.00 in0.0 mm 0.00 in0.0 mm
07:12 AM 49.2°F9.6°C 43.9°F6.6°C 82% - N16091.8 kmh N -- 29.76 in1007.8 mb 0.00 in0.0 mm 0.00 in0.0 mm 0.00 in0.0 mm
07:07 AM 48.9°F9.4°C 43.6°F6.4°C 82% - N16091.8 kmh N -- 29.76 in1007.8 mb 0.00 in0.0 mm 0.00 in0.0 mm 0.00 in0.0 mm
07:02 AM 48.7°F9.3°C 43.4°F6.3°C 82% - N16091.8 kmh N -- 29.76 in1007.8 mb 0.00 in0.0 mm 0.00 in0.0 mm 0.00 in0.0 mm
06:56 AM 48.5°F9.2°C 43.2°F6.2°C 82% - N16091.8 kmh N -- 29.76 in1007.8 mb 0.00 in0.0 mm 0.00 in0.0 mm 0.00 in0.0 mm
06:52 AM 48.3°F9.1°C 43.0°F6.1°C 82% - N16091.8 kmh N -- 29.76 in1007.8 mb 0.00 in0.0 mm 0.00 in0.0 mm 0.00 in0.0 mm
06:47 AM 48.2°F9.0°C 42.9°F6.1°C 82% - N16091.8 kmh N -- 29.76 in1007.8 mb 0.00 in0.0 mm 0.00 in0.0 mm 0.00 in0.0 mm
06:41 AM 48.2°F9.0°C 42.9°F6.1°C 82% - N16091.8 kmh N -- 29.76 in1007.8 mb 0.00 in0.0 mm 0.00 in0.0 mm 0.00 in0.0 mm
06:36 AM 48.3°F9.1°C 43.0°F6.1°C 82% - N16091.8 kmh N -- 29.76 in1007.8 mb 0.00 in0.0 mm 0.00 in0.0 mm 0.00 in0.0 mm
06:31 AM 48.3°F9.1°C 43.0°F6.1°C 82% - N16091.8 kmh N -- 29.75 in1007.5 mb 0.00 in0.0 mm 0.00 in0.0 mm 0.00 in0.0 mm
06:26 AM 48.3°F9.1°C 43.0°F6.1°C 82% - N16091.8 kmh N -- 29.75 in1007.5 mb 0.00 in0.0 mm 0.00 in0.0 mm 0.00 in0.0 mm
06:21 AM 48.3°F9.1°C 43.0°F6.1°C 82% - N16091.8 kmh N -- 29.75 in1007.5 mb 0.00 in0.0 mm 0.00 in0.0 mm 0.00 in0.0 mm
06:16 AM 48.3°F9.1°C 43.0°F6.1°C 82% - N16091.8 kmh N -- 29.75 in1007.5 mb 0.00 in0.0 mm 0.00 in0.0 mm 0.00 in0.0 mm
06:11 AM 48.3°F9.1°C 43.0°F6.1°C 82% - N16091.8 kmh N -- 29.75 in1007.5 mb 0.00 in0.0 mm 0.00 in0.0 mm 0.00 in0.0 mm
06:06 AM 48.3°F9.1°C 43.0°F6.1°C 82% - N16091.8 kmh N -- 29.76 in1007.8 mb 0.00 in0.0 mm 0.00 in0.0 mm 0.00 in0.0 mm
06:01 AM 48.3°F9.1°C 43.0°F6.1°C 82% - N16091.8 kmh N -- 29.75 in1007.5 mb 0.00 in0.0 mm 0.00 in0.0 mm 0.00 in0.0 mm
05:56 AM 48.3°F9.1°C 43.0°F6.1°C 82% - N16091.8 kmh N -- 29.75 in1007.5 mb 0.00 in0.0 mm 0.00 in0.0 mm 0.00 in0.0 mm
05:51 AM 48.3°F9.1°C 43.0°F6.1°C 82% - N16091.8 kmh N -- 29.75 in1007.5 mb 0.00 in0.0 mm 0.00 in0.0 mm 0.00 in0.0 mm
05:46 AM 48.3°F9.1°C 43.0°F6.1°C 82% - N16091.8 kmh N -- 29.75 in1007.5 mb 0.00 in0.0 mm 0.00 in0.0 mm 0.00 in0.0 mm
05:41 AM 48.5°F9.2°C 43.2°F6.2°C 82% - N16091.8 kmh N -- 29.74 in1007.1 mb 0.00 in0.0 mm 0.00 in0.0 mm 0.00 in0.0 mm
05:36 AM 48.5°F9.2°C 43.2°F6.2°C 82% - N16091.8 kmh N -- 29.74 in1007.1 mb 0.00 in0.0 mm 0.00 in0.0 mm 0.00 in0.0 mm
05:31 AM 48.5°F9.2°C 43.2°F6.2°C 82% - N16091.8 kmh N -- 29.74 in1007.1 mb 0.00 in0.0 mm 0.00 in0.0 mm 0.00 in0.0 mm
05:26 AM 48.3°F9.1°C 43.0°F6.1°C 82% - N16091.8 kmh N -- 29.74 in1007.1 mb 0.00 in0.0 mm 0.00 in0.0 mm 0.00 in0.0 mm
05:21 AM 48.3°F9.1°C 43.0°F6.1°C 82% - N16091.8 kmh N -- 29.74 in1007.1 mb 0.00 in0.0 mm 0.00 in0.0 mm 0.00 in0.0 mm
05:16 AM 48.5°F9.2°C 43.2°F6.2°C 82% - N16091.8 kmh N -- 29.74 in1007.1 mb 0.00 in0.0 mm 0.00 in0.0 mm 0.00 in0.0 mm
05:11 AM 48.5°F9.2°C 43.2°F6.2°C 82% - N16091.8 kmh N -- 29.74 in1007.1 mb 0.00 in0.0 mm 0.00 in0.0 mm 0.00 in0.0 mm
05:05 AM 48.5°F9.2°C 43.2°F6.2°C 82% - N16091.8 kmh N -- 29.74 in1007.1 mb 0.00 in0.0 mm 0.00 in0.0 mm 0.00 in0.0 mm
05:00 AM 48.5°F9.2°C 43.2°F6.2°C 82% - N16091.8 kmh N -- 29.74 in1007.1 mb 0.00 in0.0 mm 0.00 in0.0 mm 0.00 in0.0 mm
04:55 AM 48.5°F9.2°C 43.2°F6.2°C 82% - N16091.8 kmh N -- 29.74 in1007.1 mb 0.00 in0.0 mm 0.00 in0.0 mm 0.00 in0.0 mm
04:50 AM 48.3°F9.1°C 43.0°F6.1°C 82% - N16091.8 kmh N -- 29.74 in1007.1 mb 0.00 in0.0 mm 0.00 in0.0 mm 0.00 in0.0 mm
04:45 AM 48.3°F9.1°C 43.0°F6.1°C 82% - N16091.8 kmh N -- 29.75 in1007.5 mb 0.00 in0.0 mm 0.00 in0.0 mm 0.00 in0.0 mm
04:40 AM 48.3°F9.1°C 43.0°F6.1°C 82% - N16091.8 kmh N -- 29.74 in1007.1 mb 0.00 in0.0 mm 0.00 in0.0 mm 0.00 in0.0 mm
04:35 AM 48.5°F9.2°C 43.2°F6.2°C 82% - N16091.8 kmh N -- 29.74 in1007.1 mb 0.00 in0.0 mm 0.00 in0.0 mm 0.00 in0.0 mm
04:30 AM 48.3°F9.1°C 43.0°F6.1°C 82% - N16091.8 kmh N -- 29.74 in1007.1 mb 0.00 in0.0 mm 0.00 in0.0 mm 0.00 in0.0 mm
04:25 AM 48.5°F9.2°C 43.2°F6.2°C 82% - N16091.8 kmh N -- 29.74 in1007.1 mb 0.00 in0.0 mm 0.00 in0.0 mm 0.00 in0.0 mm
04:20 AM 48.5°F9.2°C 43.2°F6.2°C 82% - N16091.8 kmh N -- 29.74 in1007.1 mb 0.00 in0.0 mm 0.00 in0.0 mm 0.00 in0.0 mm
04:15 AM 48.7°F9.3°C 43.4°F6.3°C 82% - N16091.8 kmh N -- 29.74 in1007.1 mb 0.00 in0.0 mm 0.00 in0.0 mm 0.00 in0.0 mm
04:10 AM 48.9°F9.4°C 43.2°F6.2°C 81% - N16091.8 kmh N -- 29.73 in1006.8 mb 0.00 in0.0 mm 0.00 in0.0 mm 0.00 in0.0 mm
04:05 AM 48.9°F9.4°C 43.2°F6.2°C 81% - N16091.8 kmh N -- 29.73 in1006.8 mb 0.00 in0.0 mm 0.00 in0.0 mm 0.00 in0.0 mm
04:00 AM 49.1°F9.5°C 43.4°F6.3°C 81% - N16091.8 kmh N -- 29.73 in1006.8 mb 0.00 in0.0 mm 0.00 in0.0 mm 0.00 in0.0 mm
03:55 AM 49.2°F9.6°C 43.6°F6.4°C 81% - N16091.8 kmh N -- 29.73 in1006.8 mb 0.00 in0.0 mm 0.00 in0.0 mm 0.00 in0.0 mm
03:50 AM 49.4°F9.7°C 43.8°F6.6°C 81% - N16091.8 kmh N -- 29.73 in1006.8 mb 0.00 in0.0 mm 0.00 in0.0 mm 0.00 in0.0 mm
03:45 AM 49.6°F9.8°C 44.3°F6.8°C 81% - N16091.8 kmh N -- 29.73 in1006.8 mb 0.00 in0.0 mm 0.00 in0.0 mm 0.00 in0.0 mm
03:40 AM 49.6°F9.8°C 44.3°F6.8°C 82% - N16091.8 kmh N -- 29.73 in1006.8 mb 0.00 in0.0 mm 0.00 in0.0 mm 0.00 in0.0 mm
03:35 AM 49.8°F9.9°C 44.8°F7.1°C 82% - N16091.8 kmh N -- 29.73 in1006.8 mb 0.00 in0.0 mm 0.00 in0.0 mm 0.00 in0.0 mm
03:30 AM 49.8°F9.9°C 44.8°F7.1°C 82% - N16091.8 kmh N -- 29.74 in1007.1 mb 0.00 in0.0 mm 0.00 in0.0 mm 0.00 in0.0 mm
03:24 AM 49.8°F9.9°C 44.8°F7.1°C 83% - N16091.8 kmh N -- 29.73 in1006.8 mb 0.00 in0.0 mm 0.00 in0.0 mm 0.00 in0.0 mm
03:19 AM 50.0°F10.0°C 44.9°F7.2°C 83% - N16091.8 kmh N -- 29.74 in1007.1 mb 0.00 in0.0 mm 0.00 in0.0 mm 0.00 in0.0 mm
03:14 AM 50.1°F10.1°C 45.1°F7.3°C 83% - N16091.8 kmh N -- 29.74 in1007.1 mb 0.00 in0.0 mm 0.00 in0.0 mm 0.00 in0.0 mm
03:09 AM 50.3°F10.2°C 45.3°F7.4°C 83% - N16091.8 kmh N -- 29.74 in1007.1 mb 0.00 in0.0 mm 0.00 in0.0 mm 0.00 in0.0 mm
03:04 AM 50.5°F10.3°C 45.2°F7.3°C 83% - N16091.8 kmh N -- 29.74 in1007.1 mb 0.00 in0.0 mm 0.00 in0.0 mm 0.00 in0.0 mm
02:59 AM 50.5°F10.3°C 45.2°F7.3°C 83% - N16091.8 kmh N -- 29.74 in1007.1 mb 0.00 in0.0 mm 0.00 in0.0 mm 0.00 in0.0 mm
02:54 AM 50.5°F10.3°C 45.2°F7.3°C 83% - N16091.8 kmh N -- 29.74 in1007.1 mb 0.00 in0.0 mm 0.00 in0.0 mm 0.00 in0.0 mm
02:49 AM 50.5°F10.3°C 45.2°F7.3°C 83% - N16091.8 kmh N -- 29.74 in1007.1 mb 0.00 in0.0 mm 0.00 in0.0 mm 0.00 in0.0 mm
02:44 AM 50.5°F10.3°C 45.2°F7.3°C 82% - N16091.8 kmh N -- 29.74 in1007.1 mb 0.00 in0.0 mm 0.00 in0.0 mm 0.00 in0.0 mm
02:39 AM 50.5°F10.3°C 45.2°F7.3°C 82% - N16091.8 kmh N -- 29.74 in1007.1 mb 0.00 in0.0 mm 0.00 in0.0 mm 0.00 in0.0 mm
02:34 AM 50.7°F10.4°C 45.3°F7.4°C 82% - N16091.8 kmh N -- 29.74 in1007.1 mb 0.00 in0.0 mm 0.00 in0.0 mm 0.00 in0.0 mm
02:29 AM 50.7°F10.4°C 45.3°F7.4°C 82% - N16091.8 kmh N -- 29.74 in1007.1 mb 0.00 in0.0 mm 0.00 in0.0 mm 0.00 in0.0 mm
02:24 AM 50.9°F10.5°C 45.5°F7.5°C 82% - N16091.8 kmh N -- 29.74 in1007.1 mb 0.00 in0.0 mm 0.00 in0.0 mm 0.00 in0.0 mm
02:19 AM 51.0°F10.6°C 45.7°F7.6°C 82% - N16091.8 kmh N -- 29.74 in1007.1 mb 0.00 in0.0 mm 0.00 in0.0 mm 0.00 in0.0 mm
02:14 AM 51.0°F10.6°C 45.7°F7.6°C 82% - N16091.8 kmh N -- 29.74 in1007.1 mb 0.00 in0.0 mm 0.00 in0.0 mm 0.00 in0.0 mm
02:09 AM 51.2°F10.7°C 45.9°F7.7°C 82% - N16091.8 kmh N -- 29.74 in1007.1 mb 0.00 in0.0 mm 0.00 in0.0 mm 0.00 in0.0 mm
02:04 AM 51.4°F10.8°C 45.8°F7.7°C 81% - N16091.8 kmh N -- 29.74 in1007.1 mb 0.00 in0.0 mm 0.00 in0.0 mm 0.00 in0.0 mm
01:59 AM 51.4°F10.8°C 45.8°F7.7°C 81% - N16091.8 kmh N -- 29.74 in1007.1 mb 0.00 in0.0 mm 0.00 in0.0 mm 0.00 in0.0 mm
01:54 AM 51.4°F10.8°C 45.8°F7.7°C 81% - N16091.8 kmh N -- 29.75 in1007.5 mb 0.00 in0.0 mm 0.00 in0.0 mm 0.00 in0.0 mm
01:49 AM 51.4°F10.8°C 45.8°F7.7°C 81% - N16091.8 kmh N -- 29.74 in1007.1 mb 0.00 in0.0 mm 0.00 in0.0 mm 0.00 in0.0 mm
01:44 AM 51.4°F10.8°C 45.8°F7.7°C 81% - N16091.8 kmh N -- 29.74 in1007.1 mb 0.00 in0.0 mm 0.00 in0.0 mm 0.00 in0.0 mm
01:39 AM 51.6°F10.9°C 45.9°F7.7°C 81% - N16091.8 kmh N -- 29.74 in1007.1 mb 0.00 in0.0 mm 0.00 in0.0 mm 0.00 in0.0 mm
01:34 AM 51.4°F10.8°C 45.5°F7.5°C 81% - N16091.8 kmh N -- 29.74 in1007.1 mb 0.00 in0.0 mm 0.00 in0.0 mm 0.00 in0.0 mm
01:29 AM 51.4°F10.8°C 45.5°F7.5°C 81% - N16091.8 kmh N -- 29.74 in1007.1 mb 0.00 in0.0 mm 0.00 in0.0 mm 0.00 in0.0 mm
01:24 AM 51.4°F10.8°C 45.5°F7.5°C 81% - N16091.8 kmh N -- 29.74 in1007.1 mb 0.00 in0.0 mm 0.00 in0.0 mm 0.00 in0.0 mm
01:19 AM 51.4°F10.8°C 45.5°F7.5°C 81% - N16091.8 kmh N -- 29.74 in1007.1 mb 0.00 in0.0 mm 0.00 in0.0 mm 0.00 in0.0 mm
01:14 AM 51.4°F10.8°C 45.5°F7.5°C 80% - N16091.8 kmh N -- 29.74 in1007.1 mb 0.00 in0.0 mm 0.00 in0.0 mm 0.00 in0.0 mm
01:09 AM 51.6°F10.9°C 45.6°F7.6°C 80% - N16091.8 kmh N -- 29.74 in1007.1 mb 0.00 in0.0 mm 0.00 in0.0 mm 0.00 in0.0 mm
01:04 AM 51.9°F11.1°C 45.6°F7.6°C 79% - N16091.8 kmh N -- 29.74 in1007.1 mb 0.00 in0.0 mm 0.00 in0.0 mm 0.00 in0.0 mm
12:59 AM 51.9°F11.1°C 45.6°F7.6°C 79% - N16091.8 kmh N -- 29.75 in1007.5 mb 0.00 in0.0 mm 0.00 in0.0 mm 0.00 in0.0 mm
12:54 AM 52.1°F11.2°C 45.8°F7.7°C 79% - N16091.8 kmh N -- 29.75 in1007.5 mb 0.00 in0.0 mm 0.00 in0.0 mm 0.00 in0.0 mm
12:48 AM 52.3°F11.3°C 46.0°F7.8°C 79% - N16091.8 kmh N -- 29.74 in1007.1 mb 0.00 in0.0 mm 0.00 in0.0 mm 0.00 in0.0 mm
12:43 AM 52.5°F11.4°C 45.8°F7.7°C 79% - N16091.8 kmh N -- 29.74 in1007.1 mb 0.00 in0.0 mm 0.00 in0.0 mm 0.00 in0.0 mm
12:38 AM 52.5°F11.4°C 45.8°F7.7°C 79% - N16091.8 kmh N -- 29.74 in1007.1 mb 0.00 in0.0 mm 0.00 in0.0 mm 0.00 in0.0 mm
12:33 AM 52.5°F11.4°C 45.8°F7.7°C 79% - N16091.8 kmh N -- 29.74 in1007.1 mb 0.00 in0.0 mm 0.00 in0.0 mm 0.00 in0.0 mm
12:28 AM 52.5°F11.4°C 45.8°F7.7°C 78% - N16091.8 kmh N -- 29.75 in1007.5 mb 0.00 in0.0 mm 0.00 in0.0 mm 0.00 in0.0 mm
12:23 AM 52.7°F11.5°C 46.0°F7.8°C 78% - N16091.8 kmh N -- 29.74 in1007.1 mb 0.00 in0.0 mm 0.00 in0.0 mm 0.00 in0.0 mm
12:18 AM 52.5°F11.4°C 45.1°F7.3°C 78% - N16091.8 kmh N -- 29.75 in1007.5 mb 0.00 in0.0 mm 0.00 in0.0 mm 0.00 in0.0 mm
12:13 AM 52.5°F11.4°C 45.1°F7.3°C 78% - N16091.8 kmh N -- 29.75 in1007.5 mb 0.00 in0.0 mm 0.00 in0.0 mm 0.00 in0.0 mm
12:08 AM 52.5°F11.4°C 45.1°F7.3°C 77% - N16091.8 kmh N -- 29.75 in1007.5 mb 0.00 in0.0 mm 0.00 in0.0 mm 0.00 in0.0 mm
12:03 AM 52.5°F11.4°C 45.1°F7.3°C 77% - N16091.8 kmh N -- 29.75 in1007.5 mb 0.00 in0.0 mm 0.00 in0.0 mm 0.00 in0.0 mm